Time;durP1;ratioP1;P1;durP2;ratioP2;P2;SDS_P1;SDS_P2;PMS_P1;PMS_P2;Temp;Humidity;BMP_temperature;BMP_pressure;BME280_temperature;BME280_humidity;BME280_pressure;Samples;Min_cycle;Max_cycle;Signal;HPM_P1;HPM_P2
2023/10/30 00:00:21;;;;;;;17.33;15.60;;;11.40;99.90;;;;;;4995640;28;20181;-76
2023/10/30 00:02:48;;;;;;;16.02;14.73;;;11.40;99.90;;;;;;4992435;28;20701;-75
2023/10/30 00:05:16;;;;;;;17.23;15.52;;;11.30;99.90;;;;;;4991926;28;20034;-76
2023/10/30 00:07:43;;;;;;;16.77;15.48;;;11.30;99.90;;;;;;4994281;28;20043;-76
2023/10/30 00:10:09;;;;;;;21.42;15.77;;;11.40;99.90;;;;;;4983712;28;20046;-74
2023/10/30 00:12:38;;;;;;;16.80;15.30;;;11.40;99.90;;;;;;4990024;28;20045;-73
2023/10/30 00:15:05;;;;;;;17.02;15.77;;;11.40;99.90;;;;;;4990351;28;20103;-75
2023/10/30 00:17:33;;;;;;;16.80;15.38;;;11.40;99.90;;;;;;4993293;28;20107;-75
2023/10/30 00:20:00;;;;;;;17.23;15.65;;;11.40;99.90;;;;;;4995244;28;20427;-73
2023/10/30 00:22:27;;;;;;;16.48;14.90;;;11.40;99.90;;;;;;4998860;28;20046;-73
2023/10/30 00:24:54;;;;;;;16.50;15.38;;;11.40;99.90;;;;;;4989025;28;20709;-75
2023/10/30 00:27:21;;;;;;;16.90;15.57;;;11.40;99.90;;;;;;4995220;28;20099;-75
2023/10/30 00:29:48;;;;;;;17.08;15.52;;;11.40;99.90;;;;;;4991293;28;20060;-76
2023/10/30 00:32:15;;;;;;;17.23;15.75;;;11.40;99.90;;;;;;4977265;28;20122;-76
2023/10/30 00:34:42;;;;;;;17.13;15.65;;;11.50;99.90;;;;;;5024817;28;20046;-74
2023/10/30 00:37:10;;;;;;;17.58;15.75;;;11.50;99.90;;;;;;5027199;28;20482;-74
2023/10/30 00:39:37;;;;;;;17.45;15.82;;;11.50;99.90;;;;;;4992386;28;20053;-73
2023/10/30 00:42:05;;;;;;;17.10;15.55;;;11.40;99.90;;;;;;4995547;28;20548;-74
2023/10/30 00:44:32;;;;;;;17.27;15.77;;;11.40;99.90;;;;;;4993859;28;20051;-76
2023/10/30 00:46:59;;;;;;;18.17;16.50;;;11.40;99.90;;;;;;4999015;28;20137;-76
2023/10/30 00:49:26;;;;;;;17.38;16.00;;;11.40;99.90;;;;;;4993644;28;20778;-76
2023/10/30 00:51:53;;;;;;;18.15;16.40;;;11.40;99.90;;;;;;4992313;28;20046;-74
2023/10/30 00:54:19;;;;;;;17.75;16.10;;;11.40;99.90;;;;;;4986137;28;20066;-75
2023/10/30 00:56:47;;;;;;;17.60;15.98;;;11.40;99.90;;;;;;4992492;28;20046;-75
2023/10/30 00:59:14;;;;;;;19.65;16.05;;;11.40;99.90;;;;;;4999079;28;20042;-74
2023/10/30 01:01:41;;;;;;;17.27;15.90;;;11.30;99.90;;;;;;4997413;28;20046;-77
2023/10/30 01:04:08;;;;;;;16.85;15.43;;;11.30;99.90;;;;;;4997467;28;20149;-74
2023/10/30 01:06:35;;;;;;;17.38;15.80;;;11.30;99.90;;;;;;4997525;28;20053;-76
2023/10/30 01:09:02;;;;;;;18.52;16.65;;;11.20;99.90;;;;;;4995581;28;20125;-74
2023/10/30 01:11:29;;;;;;;18.00;16.35;;;11.30;99.90;;;;;;4992259;28;20042;-76
2023/10/30 01:13:56;;;;;;;17.38;15.55;;;11.20;99.90;;;;;;5002028;28;20116;-74
2023/10/30 01:16:23;;;;;;;17.50;15.85;;;11.20;99.90;;;;;;4997859;28;20582;-75
2023/10/30 01:18:50;;;;;;;16.83;15.52;;;11.20;99.90;;;;;;4996522;28;20045;-76
2023/10/30 01:21:17;;;;;;;18.00;16.27;;;11.20;99.90;;;;;;4990799;28;20073;-75
2023/10/30 01:23:44;;;;;;;16.67;15.40;;;11.20;99.90;;;;;;4990230;28;20424;-76
2023/10/30 01:26:11;;;;;;;18.90;16.90;;;11.20;99.90;;;;;;4996108;28;20049;-75
2023/10/30 01:28:38;;;;;;;17.88;16.48;;;11.10;99.90;;;;;;5001395;28;20564;-76
2023/10/30 01:31:05;;;;;;;17.17;15.45;;;11.10;99.90;;;;;;5000421;28;20044;-75
2023/10/30 01:33:32;;;;;;;19.52;15.88;;;11.10;99.90;;;;;;4998566;28;20046;-74
2023/10/30 01:35:59;;;;;;;17.10;15.65;;;11.00;99.90;;;;;;5002737;28;21922;-76
2023/10/30 01:38:26;;;;;;;16.45;14.93;;;10.80;99.90;;;;;;4998876;28;20725;-76
2023/10/30 01:40:53;;;;;;;15.68;14.15;;;10.70;99.90;;;;;;4993457;28;20091;-74
2023/10/30 01:43:31;;;;;;;19.77;15.00;;;10.60;99.90;;;;;;5000566;28;20133;-75
2023/10/30 01:45:59;;;;;;;14.77;13.65;;;10.60;99.90;;;;;;4988002;28;20086;-74
2023/10/30 01:48:28;;;;;;;14.80;13.18;;;10.60;99.90;;;;;;4995023;28;20033;-75
2023/10/30 01:50:57;;;;;;;13.25;12.32;;;10.50;99.90;;;;;;4988665;28;20038;-75
2023/10/30 01:53:24;;;;;;;14.10;12.32;;;10.50;99.90;;;;;;4999700;28;20516;-76
2023/10/30 01:55:53;;;;;;;13.35;12.00;;;10.40;99.90;;;;;;4994444;28;20057;-75
2023/10/30 01:58:22;;;;;;;13.50;11.70;;;10.40;99.90;;;;;;4993005;28;20056;-74
2023/10/30 02:00:50;;;;;;;13.52;12.32;;;10.30;99.90;;;;;;4987497;28;20053;-74
2023/10/30 02:03:18;;;;;;;13.02;11.82;;;10.30;99.90;;;;;;4994934;28;20459;-75
2023/10/30 02:05:45;;;;;;;12.73;11.68;;;10.30;99.90;;;;;;4989858;28;20532;-74
2023/10/30 02:08:14;;;;;;;12.60;11.30;;;10.30;99.90;;;;;;4988149;28;21001;-74
2023/10/30 02:10:41;;;;;;;12.60;11.60;;;10.30;99.90;;;;;;4994268;28;20116;-75
2023/10/30 02:13:09;;;;;;;13.02;11.82;;;10.20;99.90;;;;;;4998176;28;20125;-75
2023/10/30 02:15:36;;;;;;;13.23;11.93;;;10.20;99.90;;;;;;4993914;28;20057;-75
2023/10/30 02:18:04;;;;;;;13.05;11.75;;;10.20;99.90;;;;;;4990874;28;21806;-74
2023/10/30 02:20:32;;;;;;;13.00;11.70;;;10.20;99.90;;;;;;4999096;28;20492;-76
2023/10/30 02:22:59;;;;;;;13.43;11.68;;;10.20;99.90;;;;;;4993738;28;20150;-75
2023/10/30 02:25:26;;;;;;;13.02;11.68;;;10.20;99.90;;;;;;4994549;28;20054;-74
2023/10/30 02:27:53;;;;;;;13.15;12.05;;;10.20;99.90;;;;;;4992059;28;20050;-74
2023/10/30 02:30:20;;;;;;;13.80;11.23;;;10.20;99.90;;;;;;4991471;28;20042;-75
2023/10/30 02:32:47;;;;;;;12.48;11.48;;;10.10;99.90;;;;;;4993098;28;20137;-74
2023/10/30 02:35:16;;;;;;;12.98;11.73;;;10.10;99.90;;;;;;4998521;28;20600;-75
2023/10/30 02:37:44;;;;;;;12.68;11.43;;;10.10;99.90;;;;;;4993358;28;20049;-73
2023/10/30 02:40:12;;;;;;;14.27;10.75;;;10.10;99.90;;;;;;4992707;28;20050;-74
2023/10/30 02:42:40;;;;;;;14.85;10.75;;;10.00;99.90;;;;;;4988270;28;20058;-74
2023/10/30 02:45:07;;;;;;;11.88;10.60;;;10.00;99.90;;;;;;4989780;28;20060;-74
2023/10/30 02:47:34;;;;;;;12.98;10.40;;;10.00;99.90;;;;;;4994036;28;20594;-74
2023/10/30 02:50:02;;;;;;;11.32;9.32;;;10.00;99.90;;;;;;4997785;28;20081;-74
2023/10/30 02:52:30;;;;;;;11.13;9.52;;;10.00;99.90;;;;;;5020018;28;20041;-74
2023/10/30 02:54:57;;;;;;;11.57;9.27;;;10.00;99.90;;;;;;4987771;28;20034;-75
2023/10/30 02:57:24;;;;;;;10.98;9.80;;;10.00;99.90;;;;;;4994649;28;20044;-75
2023/10/30 02:59:51;;;;;;;10.23;9.43;;;10.00;99.90;;;;;;4994442;28;21486;-75
2023/10/30 03:02:18;;;;;;;15.13;9.65;;;10.10;99.90;;;;;;4995862;28;20038;-76
2023/10/30 03:04:46;;;;;;;12.10;9.55;;;10.00;99.90;;;;;;4993916;28;20048;-74
2023/10/30 03:07:15;;;;;;;9.82;8.85;;;10.00;99.90;;;;;;4995797;28;20058;-75
2023/10/30 03:09:42;;;;;;;9.43;8.68;;;10.00;99.90;;;;;;4998951;28;20459;-76
2023/10/30 03:12:09;;;;;;;11.68;9.63;;;10.00;99.90;;;;;;4988688;28;20710;-76
2023/10/30 03:14:36;;;;;;;10.15;8.90;;;10.00;99.90;;;;;;4994017;28;20065;-75
2023/10/30 03:17:04;;;;;;;12.77;8.52;;;10.00;99.90;;;;;;4990358;28;20054;-75
2023/10/30 03:19:31;;;;;;;9.95;8.93;;;10.00;99.90;;;;;;4997638;28;20052;-74
2023/10/30 03:21:58;;;;;;;13.07;9.35;;;10.10;99.90;;;;;;4991600;28;20654;-75
2023/10/30 03:24:24;;;;;;;9.27;8.45;;;10.10;99.90;;;;;;4993757;28;20029;-74
2023/10/30 03:26:51;;;;;;;12.75;9.38;;;10.10;99.90;;;;;;4999948;28;20461;-74
2023/10/30 03:29:18;;;;;;;15.18;8.80;;;10.10;99.90;;;;;;5026474;28;20042;-73
2023/10/30 03:31:45;;;;;;;9.10;8.40;;;10.10;99.90;;;;;;5028031;28;20115;-72
2023/10/30 03:34:15;;;;;;;9.05;8.23;;;10.10;99.90;;;;;;5017996;28;20147;-76
2023/10/30 03:36:42;;;;;;;11.70;8.75;;;10.00;99.90;;;;;;4998952;28;20053;-75
2023/10/30 03:39:09;;;;;;;9.73;8.40;;;10.00;99.90;;;;;;4995806;28;20162;-75
2023/10/30 03:41:37;;;;;;;13.27;8.43;;;10.00;99.90;;;;;;4994722;28;20141;-76
2023/10/30 03:44:04;;;;;;;14.02;8.23;;;10.00;99.90;;;;;;4992782;28;20100;-75
2023/10/30 03:46:33;;;;;;;10.48;7.80;;;10.00;99.90;;;;;;4994308;28;20034;-75
2023/10/30 03:49:00;;;;;;;12.43;7.88;;;10.00;99.90;;;;;;4986311;28;20591;-75
2023/10/30 03:51:27;;;;;;;16.20;8.15;;;10.00;99.90;;;;;;4994091;28;20033;-76
2023/10/30 03:53:53;;;;;;;11.15;7.25;;;10.00;99.90;;;;;;4998948;28;20542;-74
2023/10/30 03:56:20;;;;;;;12.32;7.15;;;9.90;99.90;;;;;;4999033;28;20551;-75
2023/10/30 03:58:47;;;;;;;12.77;7.85;;;10.00;99.90;;;;;;4998630;28;20583;-76
2023/10/30 04:01:14;;;;;;;9.05;7.93;;;9.90;99.90;;;;;;4988820;28;20708;-76
2023/10/30 04:03:41;;;;;;;10.85;8.05;;;9.90;99.90;;;;;;4995382;28;20050;-76
2023/10/30 04:06:08;;;;;;;12.82;7.65;;;9.90;99.90;;;;;;4995709;28;20164;-75
2023/10/30 04:08:35;;;;;;;8.52;7.35;;;9.90;99.90;;;;;;5005474;28;20048;-75
2023/10/30 04:11:09;;;;;;;14.48;8.10;;;9.90;99.90;;;;;;4997155;28;20104;-75
2023/10/30 04:13:36;;;;;;;13.65;8.55;;;10.00;99.90;;;;;;5005965;28;20092;-76
2023/10/30 04:16:03;;;;;;;11.23;8.55;;;10.00;99.90;;;;;;4999946;28;20037;-76
2023/10/30 04:18:31;;;;;;;11.63;8.52;;;10.00;99.90;;;;;;5001412;28;20049;-75
2023/10/30 04:20:58;;;;;;;11.48;8.60;;;10.00;99.90;;;;;;4997392;28;20073;-75
2023/10/30 04:23:25;;;;;;;12.88;9.35;;;10.00;99.90;;;;;;5007771;28;20092;-76
2023/10/30 04:25:52;;;;;;;9.98;8.95;;;10.10;99.90;;;;;;4994736;28;20068;-76
2023/10/30 04:28:19;;;;;;;12.43;9.52;;;10.10;99.90;;;;;;5003629;28;20041;-75
2023/10/30 04:30:45;;;;;;;14.88;9.15;;;10.00;99.90;;;;;;5005556;28;20050;-76
2023/10/30 04:33:12;;;;;;;13.85;9.60;;;10.00;99.90;;;;;;5004251;28;20048;-76
2023/10/30 04:35:39;;;;;;;15.70;9.48;;;10.10;99.90;;;;;;5003044;28;20042;-76
2023/10/30 04:38:06;;;;;;;11.90;9.27;;;10.00;99.90;;;;;;5001647;28;20056;-75
2023/10/30 04:40:33;;;;;;;10.68;9.73;;;10.10;99.90;;;;;;5001155;28;20038;-76
2023/10/30 04:43:01;;;;;;;11.88;10.68;;;10.10;99.90;;;;;;4997390;28;20544;-75
2023/10/30 04:45:28;;;;;;;12.25;10.63;;;10.10;99.90;;;;;;5004426;28;20050;-76
2023/10/30 04:47:55;;;;;;;11.68;10.77;;;10.10;99.90;;;;;;4996850;28;20037;-76
2023/10/30 04:50:22;;;;;;;21.38;12.07;;;10.10;99.90;;;;;;5003856;28;20137;-76
2023/10/30 04:52:49;;;;;;;13.30;12.02;;;10.10;99.90;;;;;;5002515;28;20061;-77
2023/10/30 04:55:16;;;;;;;13.00;11.85;;;10.10;99.90;;;;;;4999460;28;20136;-75
2023/10/30 04:57:43;;;;;;;15.27;11.77;;;10.10;99.90;;;;;;5003284;28;20042;-75
2023/10/30 05:00:11;;;;;;;18.40;12.60;;;10.10;99.90;;;;;;4992205;28;20674;-75
2023/10/30 05:02:37;;;;;;;16.42;11.65;;;10.00;99.90;;;;;;4998342;28;20107;-75
2023/10/30 05:05:04;;;;;;;16.48;11.63;;;10.00;99.90;;;;;;4998888;28;20693;-74
2023/10/30 05:07:31;;;;;;;20.73;12.15;;;10.00;99.90;;;;;;4987501;28;20052;-76
2023/10/30 05:09:58;;;;;;;18.33;11.00;;;10.00;99.90;;;;;;4999683;28;20061;-77
2023/10/30 05:12:25;;;;;;;13.27;11.15;;;9.90;99.90;;;;;;4995178;28;20547;-75
2023/10/30 05:14:52;;;;;;;13.40;10.77;;;9.90;99.90;;;;;;4991282;28;20057;-73
2023/10/30 05:17:19;;;;;;;12.77;11.32;;;9.90;99.90;;;;;;4999697;28;20714;-76
2023/10/30 05:19:46;;;;;;;20.05;12.40;;;9.90;99.90;;;;;;5003627;28;20053;-78
2023/10/30 05:22:13;;;;;;;17.58;12.40;;;9.90;99.90;;;;;;4994550;28;20602;-76
2023/10/30 05:24:40;;;;;;;12.70;10.13;;;9.90;99.90;;;;;;4995958;28;20041;-76
2023/10/30 05:27:07;;;;;;;11.73;9.93;;;9.80;99.90;;;;;;4993639;28;20049;-76
2023/10/30 05:29:34;;;;;;;16.48;10.00;;;9.90;99.90;;;;;;4997855;28;20104;-76
2023/10/30 05:32:06;;;;;;;21.80;11.57;;;9.90;99.90;;;;;;4995684;28;20248;-75
2023/10/30 05:34:34;;;;;;;13.25;11.50;;;9.90;99.90;;;;;;4997492;28;20168;-75
2023/10/30 05:37:01;;;;;;;16.58;11.80;;;9.90;99.90;;;;;;4998502;28;20064;-76
2023/10/30 05:39:28;;;;;;;13.95;12.10;;;9.90;99.90;;;;;;4998787;28;20702;-76
2023/10/30 05:41:55;;;;;;;16.63;11.65;;;9.90;99.90;;;;;;4985495;28;20046;-75
2023/10/30 05:44:22;;;;;;;16.77;11.32;;;9.90;99.90;;;;;;4995957;28;20065;-75
2023/10/30 05:46:49;;;;;;;17.92;12.05;;;9.90;99.90;;;;;;5001639;28;20053;-75
2023/10/30 05:49:16;;;;;;;20.20;11.63;;;9.90;99.90;;;;;;4978422;28;20052;-74
2023/10/30 05:51:43;;;;;;;14.95;11.27;;;9.90;99.90;;;;;;4996607;28;20030;-78
2023/10/30 05:54:10;;;;;;;16.60;11.30;;;9.90;99.90;;;;;;4992914;28;20053;-77
2023/10/30 05:56:37;;;;;;;11.00;9.90;;;9.80;99.90;;;;;;4997658;28;20527;-75
2023/10/30 05:59:04;;;;;;;13.93;9.13;;;9.80;99.90;;;;;;4987478;28;20054;-75
2023/10/30 06:01:31;;;;;;;12.10;8.93;;;9.80;99.90;;;;;;4991997;28;20053;-77
2023/10/30 06:03:57;;;;;;;10.88;9.10;;;9.80;99.90;;;;;;4988290;28;20042;-75
2023/10/30 06:06:25;;;;;;;10.57;9.10;;;9.80;99.90;;;;;;4993343;28;20048;-75
2023/10/30 06:08:51;;;;;;;10.82;9.07;;;9.80;99.90;;;;;;5022156;28;20548;-75
2023/10/30 06:11:19;;;;;;;16.02;8.85;;;9.80;99.90;;;;;;4989713;28;20042;-75
2023/10/30 06:13:45;;;;;;;10.27;8.35;;;9.80;99.90;;;;;;4992715;28;20050;-74
2023/10/30 06:16:18;;;;;;;31.48;15.60;;;9.70;99.90;;;;;;4986538;28;20046;-74
2023/10/30 06:18:45;;;;;;;17.95;9.38;;;9.70;99.90;;;;;;4991764;28;20612;-74
2023/10/30 06:21:20;;;;;;;14.52;9.88;;;9.80;99.90;;;;;;4994548;28;20619;-75
2023/10/30 06:23:47;;;;;;;10.55;9.45;;;9.80;99.90;;;;;;4993671;28;20056;-74
2023/10/30 06:26:13;;;;;;;12.55;8.50;;;9.70;99.90;;;;;;4990946;28;20041;-75
2023/10/30 06:28:41;;;;;;;15.35;9.77;;;9.70;99.90;;;;;;4995681;28;20126;-75
2023/10/30 06:31:15;;;;;;;14.95;10.07;;;9.70;99.90;;;;;;4991657;28;20572;-73
2023/10/30 06:33:43;;;;;;;13.40;9.07;;;9.70;99.90;;;;;;4996874;28;20045;-74
2023/10/30 06:36:10;;;;;;;13.65;9.77;;;9.80;99.90;;;;;;4993496;28;20505;-75
2023/10/30 06:38:38;;;;;;;15.38;10.05;;;9.80;99.90;;;;;;4995172;28;20511;-74
2023/10/30 06:41:05;;;;;;;24.90;9.85;;;9.80;99.90;;;;;;5002690;28;20038;-77
2023/10/30 06:43:33;;;;;;;19.08;9.07;;;9.80;99.90;;;;;;5042898;28;20050;-75
2023/10/30 06:46:01;;;;;;;13.55;9.00;;;9.80;99.90;;;;;;5017099;28;20139;-75
2023/10/30 06:48:28;;;;;;;15.55;9.43;;;9.80;99.90;;;;;;5003067;28;20172;-76
2023/10/30 06:50:55;;;;;;;15.93;8.27;;;9.80;99.90;;;;;;4999365;28;20145;-78
2023/10/30 06:53:23;;;;;;;16.40;9.55;;;9.90;99.90;;;;;;4998905;28;20361;-79
2023/10/30 06:55:51;;;;;;;13.13;8.90;;;9.90;99.90;;;;;;5008834;28;20125;-76
2023/10/30 06:58:18;;;;;;;12.75;8.32;;;9.90;99.90;;;;;;4993505;28;20048;-76
2023/10/30 07:00:45;;;;;;;13.68;8.80;;;10.00;99.90;;;;;;4992827;28;20057;-76
2023/10/30 07:03:12;;;;;;;9.60;8.73;;;10.00;99.90;;;;;;4996922;28;20471;-75
2023/10/30 07:05:39;;;;;;;12.95;8.93;;;10.00;99.90;;;;;;4996408;28;20050;-76
2023/10/30 07:08:06;;;;;;;11.85;9.05;;;10.10;99.90;;;;;;4990441;28;20049;-76
2023/10/30 07:10:33;;;;;;;12.60;9.20;;;10.20;99.90;;;;;;4993678;28;20049;-76
2023/10/30 07:13:00;;;;;;;12.05;8.98;;;10.20;99.90;;;;;;4999060;28;20048;-75
2023/10/30 07:15:27;;;;;;;10.65;8.32;;;10.20;99.90;;;;;;4992843;28;20038;-77
2023/10/30 07:17:56;;;;;;;18.55;10.20;;;10.20;99.90;;;;;;5000821;28;20042;-76
2023/10/30 07:20:23;;;;;;;9.30;8.38;;;10.30;99.90;;;;;;4991533;28;20070;-75
2023/10/30 07:22:50;;;;;;;12.55;8.30;;;10.30;99.90;;;;;;5001306;28;20588;-76
2023/10/30 07:25:16;;;;;;;8.85;8.13;;;10.40;99.90;;;;;;4992714;28;20053;-76
2023/10/30 07:27:43;;;;;;;11.02;9.95;;;10.40;99.90;;;;;;4993408;28;21902;-76
2023/10/30 07:30:11;;;;;;;19.52;10.73;;;10.40;99.90;;;;;;4991627;28;20033;-76
2023/10/30 07:32:38;;;;;;;14.10;10.18;;;10.50;99.90;;;;;;4995132;28;20050;-77
2023/10/30 07:35:06;;;;;;;16.80;10.43;;;10.50;99.90;;;;;;4998687;28;20607;-77
2023/10/30 07:37:36;;;;;;;23.45;10.65;;;10.50;99.90;;;;;;4993202;28;20099;-75
2023/10/30 07:40:03;;;;;;;12.05;9.93;;;10.50;99.90;;;;;;4992859;28;20176;-75
2023/10/30 07:42:30;;;;;;;15.07;9.50;;;10.50;99.90;;;;;;5042062;28;20064;-75
2023/10/30 07:44:57;;;;;;;13.77;10.80;;;10.60;99.90;;;;;;5023271;28;20041;-75
2023/10/30 07:47:24;;;;;;;13.77;9.73;;;10.60;99.90;;;;;;5016675;28;20052;-75
2023/10/30 07:50:09;;;;;;;13.05;10.27;;;10.60;99.90;;;;;;5001964;28;20052;-76
2023/10/30 07:52:36;;;;;;;13.43;10.50;;;10.70;99.90;;;;;;4994896;28;20069;-75
2023/10/30 07:55:08;;;;;;;10.93;10.05;;;10.70;99.90;;;;;;5000378;28;20065;-75
2023/10/30 07:57:34;;;;;;;17.02;10.65;;;10.70;99.90;;;;;;4993233;28;20658;-74
2023/10/30 08:00:02;;;;;;;11.65;10.23;;;10.80;99.90;;;;;;5020928;28;20058;-75
2023/10/30 08:02:39;;;;;;;12.25;11.00;;;10.80;99.90;;;;;;4994281;28;20049;-75
2023/10/30 08:05:06;;;;;;;16.20;10.82;;;10.80;99.90;;;;;;4986608;28;20050;-75
2023/10/30 08:07:35;;;;;;;13.90;10.90;;;10.80;99.90;;;;;;4994514;28;20068;-75
2023/10/30 08:10:03;;;;;;;13.27;11.93;;;10.90;99.90;;;;;;4995223;28;20033;-74
2023/10/30 08:12:30;;;;;;;13.07;11.70;;;10.90;99.90;;;;;;4990183;28;20137;-74
2023/10/30 08:14:58;;;;;;;16.23;11.65;;;10.90;99.90;;;;;;4988775;28;20042;-74
2023/10/30 08:17:26;;;;;;;17.05;11.25;;;10.90;99.90;;;;;;4988621;28;20141;-74
2023/10/30 08:19:53;;;;;;;14.05;10.50;;;10.90;99.90;;;;;;4993998;28;20144;-74
2023/10/30 08:22:21;;;;;;;12.25;10.75;;;10.90;99.90;;;;;;4995149;28;20543;-75
2023/10/30 08:24:48;;;;;;;12.25;10.30;;;10.90;99.90;;;;;;4990525;28;20045;-75
2023/10/30 08:27:15;;;;;;;11.43;10.13;;;10.90;99.90;;;;;;4988950;28;20042;-74
2023/10/30 08:29:41;;;;;;;15.85;10.68;;;10.90;99.90;;;;;;4997332;28;20458;-74
2023/10/30 08:32:08;;;;;;;11.15;10.15;;;10.90;99.90;;;;;;4995449;28;20053;-74
2023/10/30 08:34:35;;;;;;;14.82;11.15;;;10.90;99.90;;;;;;4998731;28;20057;-74
2023/10/30 08:37:02;;;;;;;12.18;10.98;;;10.90;99.90;;;;;;4992402;28;20133;-73
2023/10/30 08:39:30;;;;;;;14.10;10.75;;;10.90;99.90;;;;;;4995308;28;20534;-73
2023/10/30 08:41:56;;;;;;;18.48;11.45;;;11.00;99.90;;;;;;4992997;28;20066;-75
2023/10/30 08:44:24;;;;;;;15.85;12.02;;;11.00;99.90;;;;;;4993123;28;20050;-74
2023/10/30 08:46:54;;;;;;;17.42;11.80;;;11.10;99.90;;;;;;4995371;28;20897;-75
2023/10/30 08:49:21;;;;;;;14.63;13.13;;;11.30;99.90;;;;;;4993946;28;20045;-75
2023/10/30 08:51:48;;;;;;;15.48;14.15;;;11.40;99.90;;;;;;4998383;28;20546;-75
2023/10/30 08:54:29;;;;;;;17.73;15.77;;;11.70;99.90;;;;;;4997333;28;20696;-75
2023/10/30 08:56:55;;;;;;;18.23;16.45;;;12.00;99.90;;;;;;4997766;28;20173;-75
2023/10/30 08:59:38;;;;;;;19.38;17.63;;;12.20;99.90;;;;;;4995019;28;20545;-74
2023/10/30 09:02:06;;;;;;;20.63;18.75;;;12.40;99.90;;;;;;5008307;28;20266;-75
2023/10/30 09:04:33;;;;;;;20.17;18.58;;;12.60;99.90;;;;;;5002172;28;20136;-73
2023/10/30 09:07:00;;;;;;;20.33;18.75;;;12.70;99.90;;;;;;4994972;28;20697;-73
2023/10/30 09:09:27;;;;;;;20.98;19.25;;;12.70;99.90;;;;;;5001286;28;20793;-74
2023/10/30 09:11:55;;;;;;;20.55;18.95;;;12.70;99.90;;;;;;4993084;28;21070;-74
2023/10/30 09:14:21;;;;;;;20.17;18.83;;;12.90;99.90;;;;;;4995664;28;20060;-74
2023/10/30 09:16:52;;;;;;;20.23;18.83;;;13.00;99.90;;;;;;4998208;28;20054;-75
2023/10/30 09:19:20;;;;;;;21.60;19.85;;;13.10;99.90;;;;;;4994773;28;20123;-74
2023/10/30 09:21:46;;;;;;;21.73;20.08;;;13.20;99.90;;;;;;4995405;28;20045;-74
2023/10/30 09:24:13;;;;;;;21.55;20.02;;;13.40;99.90;;;;;;5001464;28;20041;-75
2023/10/30 09:26:40;;;;;;;21.80;20.20;;;13.60;99.90;;;;;;4998161;28;20053;-75
2023/10/30 09:29:07;;;;;;;21.30;19.88;;;13.70;99.90;;;;;;4998988;28;20045;-74
2023/10/30 09:31:34;;;;;;;20.35;18.77;;;13.70;99.90;;;;;;4993994;28;20068;-74
2023/10/30 09:34:01;;;;;;;23.20;21.25;;;13.80;99.90;;;;;;5000428;28;20041;-74
2023/10/30 09:36:28;;;;;;;21.85;20.38;;;14.10;99.90;;;;;;4996723;28;20054;-74
2023/10/30 09:38:55;;;;;;;23.88;21.65;;;14.30;99.90;;;;;;4995456;28;20045;-75
2023/10/30 09:41:25;;;;;;;22.88;21.00;;;14.50;99.90;;;;;;4994807;28;20111;-74
2023/10/30 09:43:53;;;;;;;22.80;21.05;;;14.40;99.90;;;;;;5001607;28;20157;-74
2023/10/30 09:46:26;;;;;;;22.88;20.73;;;14.40;99.90;;;;;;4996015;28;20046;-74
2023/10/30 09:48:56;;;;;;;22.42;20.95;;;14.40;99.90;;;;;;4991346;28;20038;-74
2023/10/30 09:51:25;;;;;;;22.38;20.98;;;14.30;99.90;;;;;;4996296;28;20041;-74
2023/10/30 09:53:54;;;;;;;22.20;20.70;;;14.40;99.90;;;;;;5000259;28;20057;-74
2023/10/30 09:56:22;;;;;;;23.25;21.52;;;14.40;99.90;;;;;;5002109;28;20719;-73
2023/10/30 09:58:52;;;;;;;22.35;20.75;;;14.50;99.90;;;;;;4998774;28;20049;-74
2023/10/30 10:01:20;;;;;;;21.02;19.38;;;14.50;99.90;;;;;;4991775;28;20043;-74
2023/10/30 10:03:47;;;;;;;20.95;19.65;;;14.70;99.90;;;;;;4996893;28;20052;-74
2023/10/30 10:06:15;;;;;;;21.75;20.25;;;14.80;99.90;;;;;;4995685;28;20692;-73
2023/10/30 10:08:43;;;;;;;22.45;20.85;;;14.90;99.90;;;;;;4996860;28;20054;-74
2023/10/30 10:11:10;;;;;;;22.52;21.02;;;14.80;99.90;;;;;;4985176;28;20131;-74
2023/10/30 10:13:43;;;;;;;21.92;20.30;;;14.90;99.90;;;;;;4991927;28;20041;-74
2023/10/30 10:16:30;;;;;;;24.15;22.40;;;15.00;99.90;;;;;;4993431;28;20056;-74
2023/10/30 10:18:57;;;;;;;23.30;21.52;;;15.00;99.90;;;;;;5002582;28;20050;-74
2023/10/30 10:21:25;;;;;;;20.92;19.63;;;14.90;99.90;;;;;;4992500;28;20631;-73
2023/10/30 10:23:52;;;;;;;22.15;20.65;;;14.90;99.90;;;;;;4999271;28;20052;-74
2023/10/30 10:26:29;;;;;;;21.30;20.00;;;15.00;99.90;;;;;;4991999;28;20740;-74
2023/10/30 10:28:56;;;;;;;20.30;19.08;;;15.10;99.90;;;;;;4996407;28;20046;-74
2023/10/30 10:31:22;;;;;;;20.95;19.65;;;15.20;99.90;;;;;;4995425;28;20041;-74
2023/10/30 10:33:51;;;;;;;20.50;18.85;;;15.20;99.90;;;;;;4996299;28;20120;-73
2023/10/30 10:36:18;;;;;;;21.55;20.13;;;15.30;99.90;;;;;;4994679;28;20381;-73
2023/10/30 10:38:59;;;;;;;20.23;18.92;;;15.40;99.90;;;;;;4999923;28;20045;-74
2023/10/30 10:41:26;;;;;;;20.63;19.42;;;15.40;99.90;;;;;;4989960;28;20054;-74
2023/10/30 10:43:55;;;;;;;19.65;18.40;;;15.40;99.90;;;;;;4999615;28;20424;-77
2023/10/30 10:46:32;;;;;;;21.48;20.27;;;15.30;99.90;;;;;;4995245;28;20459;-74
2023/10/30 10:49:03;;;;;;;19.88;18.67;;;15.40;99.90;;;;;;4993627;28;20053;-74
2023/10/30 10:51:37;;;;;;;20.23;18.92;;;15.50;99.90;;;;;;4982741;28;20824;-75
2023/10/30 10:54:17;;;;;;;20.00;18.58;;;15.50;99.90;;;;;;5013717;28;20087;-74
2023/10/30 10:56:49;;;;;;;20.60;19.30;;;15.60;99.90;;;;;;5009665;28;20050;-74
2023/10/30 10:59:58;;;;;;;19.98;18.67;;;15.80;99.90;;;;;;4997896;28;20080;-74
2023/10/30 11:02:32;;;;;;;20.45;19.15;;;16.10;99.90;;;;;;4983179;28;20049;-75
2023/10/30 11:05:07;;;;;;;21.10;19.80;;;16.00;99.90;;;;;;4988322;28;20060;-74
2023/10/30 11:07:34;;;;;;;21.40;20.20;;;16.00;99.90;;;;;;4992580;28;21256;-73
2023/10/30 11:10:06;;;;;;;21.58;20.27;;;16.10;99.90;;;;;;4994210;28;20801;-74
2023/10/30 11:12:36;;;;;;;;;;;16.00;99.90;;;;;;4991976;28;20157;-73
2023/10/30 11:15:13;;;;;;;21.20;19.90;;;15.90;99.90;;;;;;4990018;28;19928;-74
2023/10/30 11:17:40;;;;;;;22.08;20.77;;;15.80;99.90;;;;;;5015389;28;20038;-75
2023/10/30 11:20:08;;;;;;;20.80;19.70;;;15.70;99.90;;;;;;4990962;28;20049;-73
2023/10/30 11:22:43;;;;;;;21.55;20.08;;;15.70;99.90;;;;;;4994111;28;21450;-74
2023/10/30 11:25:36;;;;;;;21.15;19.85;;;15.80;99.90;;;;;;4993073;28;20037;-74
2023/10/30 11:28:03;;;;;;;21.90;20.55;;;15.60;99.90;;;;;;4991947;28;20045;-73
2023/10/30 11:30:33;;;;;;;20.92;19.73;;;15.60;99.90;;;;;;4993247;28;20208;-74
2023/10/30 11:33:01;;;;;;;21.05;19.67;;;15.50;99.90;;;;;;4995947;28;20190;-73
2023/10/30 11:35:30;;;;;;;20.65;19.30;;;15.50;99.90;;;;;;4990654;28;20139;-73
2023/10/30 11:37:57;;;;;;;20.83;19.80;;;15.60;99.90;;;;;;4994075;28;20038;-73
2023/10/30 11:40:25;;;;;;;22.02;20.85;;;15.70;99.90;;;;;;4995954;28;20044;-74
2023/10/30 11:42:56;;;;;;;21.23;19.90;;;15.70;99.90;;;;;;4991344;28;20054;-73
2023/10/30 11:45:28;;;;;;;20.60;19.58;;;15.60;99.90;;;;;;4990472;28;20104;-74
2023/10/30 11:48:06;;;;;;;21.85;20.70;;;15.70;99.90;;;;;;4985721;28;20045;-74
2023/10/30 11:50:33;;;;;;;20.75;19.55;;;15.80;99.90;;;;;;4990818;28;20076;-74
2023/10/30 11:53:11;;;;;;;21.85;20.45;;;16.00;99.90;;;;;;4993831;28;20038;-74
2023/10/30 11:55:39;;;;;;;21.08;19.85;;;16.10;99.90;;;;;;5015952;28;20034;-72
2023/10/30 11:58:10;;;;;;;20.85;19.75;;;15.90;99.90;;;;;;5023786;28;20602;-73
2023/10/30 12:00:46;;;;;;;21.05;19.92;;;15.90;99.90;;;;;;5024983;28;20333;-74
2023/10/30 12:03:14;;;;;;;21.27;20.13;;;15.90;99.90;;;;;;4997358;28;20042;-75
2023/10/30 12:05:42;;;;;;;23.10;21.63;;;15.90;99.90;;;;;;4994017;28;20124;-75
2023/10/30 12:08:10;;;;;;;21.55;20.30;;;16.00;99.90;;;;;;5001277;28;20048;-73
2023/10/30 12:10:39;;;;;;;21.27;20.08;;;16.00;99.90;;;;;;4993328;28;20062;-75
2023/10/30 12:13:08;;;;;;;20.92;19.40;;;16.00;99.90;;;;;;4993367;28;20053;-74
2023/10/30 12:15:35;;;;;;;20.08;18.98;;;16.00;99.90;;;;;;4990770;28;20096;-75
2023/10/30 12:18:12;;;;;;;19.17;18.00;;;15.90;99.90;;;;;;4993396;28;20026;-74
2023/10/30 12:20:57;;;;;;;20.30;19.15;;;16.00;99.90;;;;;;4980092;28;20049;-74
2023/10/30 12:23:24;;;;;;;20.13;19.02;;;16.00;99.90;;;;;;4992761;28;20096;-74
2023/10/30 12:25:52;;;;;;;20.15;19.05;;;16.10;99.90;;;;;;4996933;28;20045;-74
2023/10/30 12:28:20;;;;;;;19.92;18.83;;;16.20;99.90;;;;;;4997575;28;20108;-73
2023/10/30 12:30:47;;;;;;;21.48;20.05;;;16.20;99.90;;;;;;5001542;28;20058;-74
2023/10/30 12:33:21;;;;;;;21.92;20.63;;;16.20;99.90;;;;;;4995751;28;20058;-74
2023/10/30 12:35:57;;;;;;;23.33;22.02;;;16.10;99.90;;;;;;4999635;28;20161;-75
2023/10/30 12:38:24;;;;;;;21.30;20.10;;;16.00;99.90;;;;;;4996720;28;20068;-74